EDD weather

Erldunda Airport
Northern Territory, Australia

Public forecast

Using degrees Celsius for public forecast. Weather courtesy of forecast.io.

Closest aviation weather report (METAR) to Erldunda Airport

Closest report is Alice Springs Airport, 91.2 nm (168.8 km) NNE. Retrieved 2019/10/14 12:30 UTC (0 seconds ago):

YBAS 141230Z AUTO 19008KT 9999 // NCD 29/M03 Q1013 RF000/0000

Closest aviation forecast (TAF) to Erldunda Airport

Closest forecast is Alice Springs Airport, 91.2 nm (168.8 km) NNE. Retrieved 2019/10/14 12:00 UTC (11 minutes ago):

TAF YBAS 141113Z 1412/1512 09007KT CAVOK FM150200 27012KT CAVOK